Aviation Digital Data Service (ADDS)

Output produced by METARs form (0257 UTC 19 February 2019)
found at http://www.aviationweather.gov/metar/data/
 
LPBJ 190200Z 02004KT 9999 BKN045 11/10 Q1020
TAF LPBJ 182305Z 1900/1924 VRB02KT 9999 FEW020 SCT040 
     PROB40 1903/1909 0200 FG BKN002 
     BECMG 1909/1912 16008KT 
     TEMPO 1909/1919 6000 -SHRA FEW015 BKN020 
     PROB40 
     TEMPO 1915/1918 4000 SHRA SCT015 FEW020TCU 
     BECMG 1918/1921 VRB02KT 5000 BCFG SCT002
       
LPFR 190230Z 04006KT 9999 FEW020 12/11 Q1018
TAF LPFR 182300Z 1900/1924 06008KT 9999 FEW015 SCT045 
     TEMPO 1900/1903 8000 -RA SCT012 FEW025TCU BKN045 
     BECMG 1911/1914 11008KT FEW030 
     BECMG 1915/1917 VRB03KT 
     BECMG 1920/1922 34007KT CAVOK
       
LPHR 182100Z 21022KT 9999 SCT014 BKN026 17/14 Q1018
LPLA 190200Z /////KT 4000 -RA BR SCT014 BKN025 15/14 Q1016
TAF LPLA 182315Z 1900/1924 21015KT 9999 SCT016 BKN025 
     TEMPO 1900/1911 22025G48KT 5000 -RADZ SCT010 BKN014 
     PROB40 
     TEMPO 1902/1911 2000 RADZ SCT006 BKN008 
     TEMPO 1911/1921 22015G25KT 5000 -SHRA SCT012 BKN016 
     TEMPO 1921/1924 22028G52KT 3000 -RADZ SCT008 BKN012
       
LPPT 190230Z 36006KT CAVOK 11/09 Q1020
TAF LPPT 182300Z 1900/2006 35012KT 9999 FEW015 
     BECMG 1902/1905 35007KT 
     BECMG 1908/1910 06005KT 
     BECMG 1911/1914 VRB03KT BKN035 
     BECMG 1916/1919 32008KT FEW020 
     BECMG 2000/2003 VRB03KT FEW012
       
LPMA 190230Z 01008KT 340V040 9999 SCT016 15/06 Q1024
TAF LPMA 182300Z 1900/1924 35008KT 9999 SCT015 
     TEMPO 1900/1924 SCT015 BKN030 
     TEMPO 1900/1909 VRB05KT 
     BECMG 1909/1911 02010KT 
     BECMG 1916/1919 VRB05KT
       
LPMR 190200Z 16002KT 9999 FEW040 09/08 Q1021
TAF LPMR 182304Z 1900/1924 VRB02KT 9999 SCT020 SCT035 
     BECMG 1912/1914 32008KT 
     BECMG 1920/1922 VRB02KT
       
LPMT 190200Z 04007KT CAVOK 12/10 Q1020
TAF LPMT 182304Z 1900/1924 02005KT 9999 FEW025 
     BECMG 1906/1908 FEW020 BKN035 
     BECMG 1922/1924 FEW020
       
LPOV 190200Z VRB02KT CAVOK 06/04 Q1021
TAF LPOV 182303Z 1900/1924 VRB02KT 9999 FEW025 
     BECMG 1910/1913 28008KT 
     BECMG 1918/1920 VRB02KT FEW020 SCT030
       
LPPD 190230Z 21018KT 9999 FEW018 BKN035 16/12 Q1020
TAF LPPD 182300Z 1900/1924 21020KT 9999 FEW020 BKN035 
     BECMG 1900/1903 SCT012 BKN025 
     TEMPO 1906/1924 21023G35KT 3000 -RADZ BR SCT003 BKN005 
     BECMG 1909/1912 SCT006 BKN012 
     PROB30 
     TEMPO 1912/1924 2000 RADZ BR SCT001 BKN003
       
LPPR 190230Z 34003KT 8000 NSC 03/03 Q1021
TAF LPPR 182300Z 1900/1924 VRB03KT 9999 FEW015 
     BECMG 1900/1903 06005KT 
     BECMG 1906/1909 09008KT 
     BECMG 1911/1914 28008KT BKN040 
     BECMG 1918/1921 VRB03KT FEW015
       
LPPS 190230Z 01007KT 9999 FEW015 14/05 Q1024
TAF LPPS 182300Z 1900/2006 03010KT 9999 FEW015 BKN030 
     TEMPO 1900/2006 SCT015 
     BECMG 1912/1915 36010KT 
     BECMG 1918/1921 VRB05KT
       
LPAZ 190230Z 20021KT 9999 FEW026 16/10 Q1021
TAF LPAZ 182300Z 1900/2006 21020KT 9999 FEW018 BKN035 
     BECMG 1903/1906 SCT012 BKN025 
     TEMPO 1909/2006 21023G35KT 5000 -RADZ BR SCT004 BKN008 
     BECMG 1909/1912 SCT006 BKN012 
     PROB30 
     TEMPO 1912/2006 2000 RADZ BR SCT001 BKN003